createdAt,value
2018-09-11T00:01:36.200Z,4.17
2018-09-11T00:04:04.714Z,4.13
2018-09-11T00:06:33.222Z,3.50
2018-09-11T00:09:01.733Z,4.30
2018-09-11T00:11:30.224Z,3.73
2018-09-11T00:13:58.709Z,3.63
2018-09-11T00:16:27.200Z,3.60
2018-09-11T00:18:55.708Z,3.73
2018-09-11T00:21:24.255Z,4.17
2018-09-11T00:23:52.802Z,3.40
2018-09-11T00:26:21.355Z,3.73
2018-09-11T00:28:49.946Z,3.87
2018-09-11T00:31:18.526Z,3.27
2018-09-11T00:33:47.007Z,7.80
2018-09-11T00:36:15.557Z,3.63
2018-09-11T00:38:44.049Z,3.87
2018-09-11T00:41:12.557Z,3.10
2018-09-11T00:43:41.161Z,4.90
2018-09-11T00:46:09.667Z,4.50
2018-09-11T00:48:38.208Z,3.30
2018-09-11T00:51:06.691Z,3.60
2018-09-11T00:53:35.255Z,4.07
2018-09-11T00:56:03.808Z,3.53
2018-09-11T00:58:32.332Z,4.20
2018-09-11T01:01:00.853Z,3.27
2018-09-11T01:03:29.599Z,3.27
2018-09-11T01:05:58.135Z,3.70
2018-09-11T01:08:26.643Z,6.10
2018-09-11T01:10:55.138Z,3.50
2018-09-11T01:13:23.618Z,3.20
2018-09-11T01:15:52.123Z,3.57
2018-09-11T01:18:20.647Z,4.77
2018-09-11T01:20:49.237Z,3.90
2018-09-11T01:23:17.811Z,3.03
2018-09-11T01:25:46.351Z,3.50
2018-09-11T01:28:14.853Z,3.93
2018-09-11T01:30:43.340Z,3.37
2018-09-11T01:33:11.867Z,3.70
2018-09-11T01:35:40.350Z,3.80
2018-09-11T01:38:08.911Z,3.87
2018-09-11T01:40:37.439Z,3.13
2018-09-11T01:43:06.031Z,3.70
2018-09-11T01:45:34.552Z,4.37
2018-09-11T01:48:03.245Z,3.47
2018-09-11T01:50:32.102Z,3.57
2018-09-11T01:53:00.686Z,3.40
2018-09-11T01:55:29.290Z,3.53
2018-09-11T01:57:57.816Z,3.60
2018-09-11T02:00:26.319Z,3.37
2018-09-11T02:02:54.795Z,4.07
2018-09-11T02:05:23.298Z,3.60
2018-09-11T02:07:51.836Z,3.50
2018-09-11T02:10:20.323Z,4.80
2018-09-11T02:12:48.838Z,4.00
2018-09-11T02:15:17.380Z,3.60
2018-09-11T02:17:45.908Z,3.27
2018-09-11T02:20:14.510Z,3.43
2018-09-11T02:22:43.035Z,3.47
2018-09-11T02:25:11.555Z,3.60
2018-09-11T02:27:40.062Z,3.67
2018-09-11T02:30:08.534Z,3.37
2018-09-11T02:32:37.102Z,4.03
2018-09-11T02:35:05.785Z,3.40
2018-09-11T02:37:34.327Z,4.63
2018-09-11T02:40:02.845Z,4.00
2018-09-11T02:42:31.348Z,3.53
2018-09-11T02:44:59.847Z,3.47
2018-09-11T02:47:28.322Z,3.27
2018-09-11T02:49:56.831Z,3.10
2018-09-11T02:52:25.401Z,3.60
2018-09-11T02:54:54.008Z,3.50
2018-09-11T02:57:22.704Z,3.47
2018-09-11T02:59:51.182Z,3.40
2018-09-11T03:02:19.690Z,3.40
2018-09-11T03:04:48.193Z,3.40
2018-09-11T03:07:16.662Z,3.33
2018-09-11T03:09:45.217Z,3.37
2018-09-11T03:12:13.767Z,3.73
2018-09-11T03:14:42.281Z,3.43
2018-09-11T03:17:10.806Z,3.50
2018-09-11T03:19:39.372Z,3.87
2018-09-11T03:22:07.863Z,3.87
2018-09-11T03:24:36.396Z,3.40
2018-09-11T03:27:04.938Z,4.07
2018-09-11T03:29:33.463Z,3.23
2018-09-11T03:32:02.025Z,3.30
2018-09-11T03:34:30.717Z,3.70
2018-09-11T03:36:59.616Z,3.53
2018-09-11T03:39:28.464Z,3.40
2018-09-11T03:41:57.199Z,3.50
2018-09-11T03:44:25.846Z,3.53
2018-09-11T03:46:54.701Z,3.33
2018-09-11T03:49:23.423Z,3.83
2018-09-11T03:51:52.405Z,4.43
2018-09-11T03:54:21.207Z,3.23
2018-09-11T03:56:50.218Z,3.33
2018-09-11T03:59:19.037Z,4.20
2018-09-11T04:01:47.801Z,3.40
2018-09-11T04:04:16.311Z,8.90
2018-09-11T04:06:44.849Z,6.97
2018-09-11T04:09:13.889Z,4.60
2018-09-11T04:11:43.199Z,4.63
2018-09-11T04:14:11.958Z,3.43
2018-09-11T04:16:40.575Z,9.30
2018-09-11T04:19:09.163Z,6.00
2018-09-11T04:21:37.762Z,4.43
2018-09-11T04:24:07.403Z,5.30
2018-09-11T04:26:36.003Z,3.20
2018-09-11T04:29:04.773Z,3.40
2018-09-11T04:31:33.466Z,4.37
2018-09-11T04:34:02.101Z,3.90
2018-09-11T04:36:30.706Z,4.83
2018-09-11T04:38:59.249Z,9.80
2018-09-11T04:41:27.817Z,3.80
2018-09-11T04:43:56.390Z,3.40
2018-09-11T04:46:25.102Z,3.53
2018-09-11T04:48:53.593Z,5.93
2018-09-11T04:51:22.135Z,3.83
2018-09-11T04:53:50.686Z,7.17
2018-09-11T04:56:19.207Z,3.87
2018-09-11T04:58:47.768Z,5.03
2018-09-11T05:01:16.383Z,3.50
2018-09-11T05:03:44.937Z,3.63
2018-09-11T05:06:13.406Z,4.77
2018-09-11T05:08:41.939Z,3.33
2018-09-11T05:11:10.450Z,4.57
2018-09-11T05:13:39.013Z,4.30
2018-09-11T05:16:07.489Z,3.67
2018-09-11T05:18:36.055Z,3.30
2018-09-11T05:21:04.564Z,4.33
2018-09-11T05:23:33.143Z,3.27
2018-09-11T05:26:01.711Z,3.83
2018-09-11T05:28:30.230Z,3.50
2018-09-11T05:30:58.776Z,4.60
2018-09-11T05:33:27.289Z,3.67
2018-09-11T05:35:55.809Z,6.53
2018-09-11T05:38:24.355Z,3.50
2018-09-11T05:40:52.866Z,2.90
2018-09-11T05:43:21.384Z,4.53
2018-09-11T05:45:50.052Z,3.70
2018-09-11T05:48:18.687Z,4.50
2018-09-11T05:50:48.287Z,3.47
2018-09-11T05:53:16.913Z,4.20
2018-09-11T05:55:45.563Z,3.60
2018-09-11T05:58:14.166Z,5.20
2018-09-11T06:00:42.819Z,3.50
2018-09-11T06:03:11.362Z,4.13
2018-09-11T06:05:39.915Z,3.17
2018-09-11T06:08:09.639Z,3.87
2018-09-11T06:10:40.305Z,3.40
2018-09-11T06:13:08.907Z,3.43
2018-09-11T06:15:37.457Z,3.87
2018-09-11T06:18:06.156Z,4.67
2018-09-11T06:20:34.681Z,5.00
2018-09-11T06:23:03.261Z,3.80
2018-09-11T06:25:31.865Z,3.63
2018-09-11T06:28:00.512Z,3.40
2018-09-11T06:30:29.071Z,5.90
2018-09-11T06:32:57.596Z,3.40
2018-09-11T06:35:26.121Z,3.77
2018-09-11T06:37:54.703Z,3.73
2018-09-11T06:40:23.262Z,4.00
2018-09-11T06:42:51.871Z,4.40
2018-09-11T06:45:21.134Z,3.80
2018-09-11T06:47:49.672Z,5.20
2018-09-11T06:50:18.341Z,3.93
2018-09-11T06:52:46.980Z,3.70
2018-09-11T06:55:15.771Z,4.37
2018-09-11T06:57:44.322Z,3.53
2018-09-11T07:00:13.376Z,4.37
2018-09-11T07:02:41.938Z,5.73
2018-09-11T07:05:10.469Z,5.43
2018-09-11T07:07:39.025Z,6.30
2018-09-11T07:10:07.919Z,5.20
2018-09-11T07:12:36.538Z,6.13
2018-09-11T07:15:05.058Z,7.17
2018-09-11T07:17:33.630Z,5.47
2018-09-11T07:20:02.420Z,8.70
2018-09-11T07:22:30.883Z,4.90
2018-09-11T07:24:59.633Z,8.60
2018-09-11T07:27:28.178Z,7.50
2018-09-11T07:29:56.879Z,5.90
2018-09-11T07:32:25.457Z,10.63
2018-09-11T07:34:54.022Z,6.50
2018-09-11T07:37:22.641Z,6.40
2018-09-11T07:39:51.177Z,6.27
2018-09-11T07:42:19.700Z,5.60
2018-09-11T07:44:48.262Z,7.37
2018-09-11T07:47:16.798Z,5.70
2018-09-11T07:49:45.386Z,5.27
2018-09-11T07:52:13.910Z,5.90
2018-09-11T07:54:42.494Z,6.03
2018-09-11T07:57:11.062Z,6.10
2018-09-11T07:59:39.626Z,6.93
2018-09-11T08:02:08.352Z,8.13
2018-09-11T08:04:36.851Z,8.10
2018-09-11T08:07:05.459Z,6.50
2018-09-11T08:09:34.070Z,6.47
2018-09-11T08:12:02.729Z,5.53
2018-09-11T08:14:31.163Z,5.43
2018-09-11T08:16:59.639Z,4.63
2018-09-11T08:19:28.134Z,7.33
2018-09-11T08:21:56.666Z,5.93
2018-09-11T08:24:25.164Z,6.40
2018-09-11T08:26:53.687Z,5.70
2018-09-11T08:29:22.240Z,5.03
2018-09-11T08:31:50.712Z,6.63
2018-09-11T08:34:19.210Z,6.40
2018-09-11T08:36:47.741Z,5.93
2018-09-11T08:39:16.272Z,5.80
2018-09-11T08:41:44.776Z,5.73
2018-09-11T08:44:13.268Z,5.33
2018-09-11T08:46:41.827Z,11.23
2018-09-11T08:49:10.308Z,5.37
2018-09-11T08:51:38.794Z,5.77
2018-09-11T08:54:07.329Z,6.10
2018-09-11T08:56:35.804Z,5.07
2018-09-11T08:59:04.304Z,19.70
2018-09-11T09:01:33.427Z,10.37
2018-09-11T09:04:01.907Z,7.50
2018-09-11T09:06:30.393Z,19.80
2018-09-11T09:08:58.875Z,9.67
2018-09-11T09:11:27.367Z,5.43
2018-09-11T09:13:55.831Z,5.53
2018-09-11T09:16:24.381Z,5.60
2018-09-11T09:18:52.875Z,8.60
2018-09-11T09:21:21.521Z,4.77
2018-09-11T09:23:50.058Z,12.80
2018-09-11T09:26:18.527Z,5.17
2018-09-11T09:28:47.177Z,4.43
2018-09-11T09:31:15.660Z,5.13
2018-09-11T09:33:44.122Z,4.97
2018-09-11T09:36:12.581Z,4.80
2018-09-11T09:38:41.040Z,4.70
2018-09-11T09:41:09.508Z,6.27
2018-09-11T09:43:37.958Z,5.30
2018-09-11T09:46:06.393Z,9.17
2018-09-11T09:48:34.865Z,5.70
2018-09-11T09:51:03.335Z,5.20
2018-09-11T09:53:31.826Z,4.87
2018-09-11T09:56:00.300Z,4.23
2018-09-11T09:58:28.951Z,6.10
2018-09-11T10:01:01.538Z,5.67
2018-09-11T10:03:30.538Z,12.97
2018-09-11T10:05:59.044Z,11.20
2018-09-11T10:08:27.526Z,9.33
2018-09-11T10:10:56.021Z,7.17
2018-09-11T10:13:24.481Z,10.13
2018-09-11T10:15:53.119Z,6.80
2018-09-11T10:18:21.735Z,8.57
2018-09-11T10:20:50.374Z,7.37
2018-09-11T10:23:19.004Z,7.30
2018-09-11T10:25:47.699Z,7.67
2018-09-11T10:28:16.626Z,4.40
2018-09-11T10:30:45.485Z,20.17
2018-09-11T10:33:14.387Z,6.23
2018-09-11T10:35:43.197Z,7.70
2018-09-11T10:38:12.124Z,5.17
2018-09-11T10:40:40.951Z,5.03
2018-09-11T10:43:10.877Z,5.50
2018-09-11T10:45:39.711Z,9.23
2018-09-11T10:48:15.005Z,5.00
2018-09-11T10:50:43.881Z,7.43
2018-09-11T10:53:12.679Z,5.77
2018-09-11T10:55:41.548Z,6.00
2018-09-11T10:58:10.315Z,6.53
2018-09-11T11:00:39.265Z,10.23
2018-09-11T11:03:08.169Z,4.93
2018-09-11T11:05:36.966Z,7.67
2018-09-11T11:08:05.778Z,5.93
2018-09-11T11:10:34.639Z,6.17
2018-09-11T11:13:03.762Z,5.00
2018-09-11T11:15:32.548Z,5.30
2018-09-11T11:18:02.011Z,4.33
2018-09-11T11:20:31.168Z,4.00
2018-09-11T11:23:00.045Z,7.30
2018-09-11T11:25:30.123Z,5.23
2018-09-11T11:27:59.051Z,7.03
2018-09-11T11:30:27.987Z,7.87
2018-09-11T11:32:56.899Z,4.77
2018-09-11T11:35:25.532Z,7.77
2018-09-11T11:37:54.737Z,13.97
2018-09-11T11:40:23.371Z,12.70
2018-09-11T11:42:52.009Z,39.50
2018-09-11T11:45:20.807Z,29.90
2018-09-11T11:47:49.486Z,33.33
2018-09-11T11:50:18.933Z,32.10
2018-09-11T11:52:47.482Z,26.47
2018-09-11T11:55:16.060Z,27.47
2018-09-11T11:57:44.462Z,30.63
2018-09-11T12:00:12.985Z,34.20
2018-09-11T12:02:41.466Z,33.17
2018-09-11T12:05:09.969Z,33.73
2018-09-11T12:07:38.483Z,25.70
2018-09-11T12:10:07.294Z,24.70
2018-09-11T12:12:35.771Z,38.13
2018-09-11T12:15:04.389Z,23.60
2018-09-11T12:17:32.871Z,31.70
2018-09-11T12:20:01.362Z,35.40
2018-09-11T12:22:29.879Z,23.97
2018-09-11T12:24:58.378Z,17.47
2018-09-11T12:27:26.945Z,23.03
2018-09-11T12:29:55.440Z,24.67
2018-09-11T12:32:24.573Z,23.37
2018-09-11T12:34:53.067Z,22.23
2018-09-11T12:37:21.557Z,28.13
2018-09-11T12:39:50.055Z,30.10
2018-09-11T12:42:18.548Z,35.50
2018-09-11T12:44:47.096Z,24.33
2018-09-11T12:47:15.650Z,24.73
2018-09-11T12:49:44.105Z,15.73
2018-09-11T12:52:12.596Z,25.77
2018-09-11T12:54:41.089Z,26.70
2018-09-11T12:57:09.569Z,23.83
2018-09-11T12:59:38.065Z,20.90
2018-09-11T13:02:06.836Z,23.87
2018-09-11T13:04:35.328Z,18.03
2018-09-11T13:07:03.811Z,22.80
2018-09-11T13:09:32.414Z,20.70
2018-09-11T13:12:00.888Z,21.47
2018-09-11T13:14:29.365Z,16.33
2018-09-11T13:16:57.851Z,20.17
2018-09-11T13:19:26.319Z,25.70
2018-09-11T13:21:54.825Z,23.70
2018-09-11T13:24:23.338Z,23.03
2018-09-11T13:26:51.843Z,22.33
2018-09-11T13:29:20.339Z,19.43
2018-09-11T13:31:48.874Z,21.63
2018-09-11T13:34:17.358Z,19.13
2018-09-11T13:36:45.865Z,18.93
2018-09-11T13:39:14.352Z,23.80
2018-09-11T13:41:42.840Z,18.77
2018-09-11T13:44:11.348Z,20.73
2018-09-11T13:46:39.841Z,18.07
2018-09-11T13:49:08.328Z,22.20
2018-09-11T13:51:37.027Z,23.53
2018-09-11T13:54:05.520Z,18.63
2018-09-11T13:56:34.015Z,20.20
2018-09-11T13:59:02.494Z,20.67
2018-09-11T14:01:30.970Z,19.20
2018-09-11T14:03:59.449Z,16.33
2018-09-11T14:06:27.927Z,17.73
2018-09-11T14:08:56.404Z,16.27
2018-09-11T14:11:24.888Z,19.20
2018-09-11T14:13:53.380Z,21.73
2018-09-11T14:16:21.859Z,20.10
2018-09-11T14:18:50.450Z,20.17
2018-09-11T14:21:19.006Z,22.57
2018-09-11T14:23:47.450Z,18.27
2018-09-11T14:26:15.961Z,17.40
2018-09-11T14:28:44.437Z,20.53
2018-09-11T14:31:12.979Z,19.07
2018-09-11T14:33:41.520Z,15.93
2018-09-11T14:36:10.020Z,24.37
2018-09-11T14:38:38.527Z,18.73
2018-09-11T14:41:07.014Z,18.73
2018-09-11T14:43:35.574Z,19.13
2018-09-11T14:46:04.071Z,20.10
2018-09-11T14:48:32.585Z,19.20
2018-09-11T14:51:01.168Z,18.80
2018-09-11T14:53:29.690Z,20.60
2018-09-11T14:55:58.168Z,16.90
2018-09-11T14:58:26.813Z,21.00
2018-09-11T15:00:55.274Z,15.73
2018-09-11T15:03:23.984Z,15.70
2018-09-11T15:05:52.473Z,17.10
2018-09-11T15:08:20.980Z,19.13
2018-09-11T15:10:49.451Z,19.50
2018-09-11T15:13:17.927Z,20.47
2018-09-11T15:15:46.420Z,15.80
2018-09-11T15:18:14.900Z,14.10
2018-09-11T15:20:43.406Z,17.93
2018-09-11T15:23:11.904Z,15.67
2018-09-11T15:25:40.408Z,20.70
2018-09-11T15:28:09.106Z,14.67
2018-09-11T15:30:37.617Z,19.33
2018-09-11T15:33:06.415Z,17.60
2018-09-11T15:35:34.927Z,18.20
2018-09-11T15:38:03.403Z,18.07
2018-09-11T15:40:31.911Z,19.13
2018-09-11T15:43:00.395Z,17.97
2018-09-11T15:45:28.877Z,15.33
2018-09-11T15:47:57.355Z,15.70
2018-09-11T15:50:25.872Z,16.27
2018-09-11T15:52:54.342Z,17.20
2018-09-11T15:55:22.824Z,17.37
2018-09-11T15:57:51.339Z,13.90
2018-09-11T16:00:19.829Z,16.60
2018-09-11T16:02:48.306Z,14.93
2018-09-11T16:05:16.782Z,14.00
2018-09-11T16:07:45.279Z,13.90
2018-09-11T16:10:13.759Z,13.00
2018-09-11T16:12:42.291Z,15.50
2018-09-11T16:15:10.834Z,14.80
2018-09-11T16:17:39.287Z,17.17
2018-09-11T16:20:08.126Z,14.33
2018-09-11T16:22:36.617Z,14.63
2018-09-11T16:25:05.427Z,16.60
2018-09-11T16:27:33.910Z,13.53
2018-09-11T16:30:02.373Z,13.93
2018-09-11T16:32:31.012Z,13.63
2018-09-11T16:34:59.486Z,13.57
2018-09-11T16:37:27.998Z,15.93
2018-09-11T16:39:56.499Z,12.87
2018-09-11T16:42:24.993Z,14.30
2018-09-11T16:44:53.487Z,16.30
2018-09-11T16:47:21.965Z,11.13
2018-09-11T16:49:50.446Z,14.80
2018-09-11T16:52:18.915Z,15.13
2018-09-11T16:54:47.412Z,13.80
2018-09-11T16:57:15.895Z,12.70
2018-09-11T16:59:44.395Z,15.23
2018-09-11T17:02:12.963Z,16.07
2018-09-11T17:04:41.423Z,12.90
2018-09-11T17:07:09.891Z,13.63
2018-09-11T17:09:38.371Z,13.90
2018-09-11T17:12:06.924Z,12.27
2018-09-11T17:14:35.399Z,13.47
2018-09-11T17:17:03.878Z,10.77
2018-09-11T17:19:32.394Z,13.73
2018-09-11T17:22:00.858Z,13.90
2018-09-11T17:24:29.363Z,11.93
2018-09-11T17:26:57.852Z,12.37
2018-09-11T17:29:26.336Z,11.87
2018-09-11T17:31:54.824Z,12.50
2018-09-11T17:34:23.315Z,12.40
2018-09-11T17:36:51.800Z,12.10
2018-09-11T17:39:20.293Z,12.47
2018-09-11T17:41:48.775Z,11.67
2018-09-11T17:44:17.251Z,11.97
2018-09-11T17:46:45.733Z,11.77
2018-09-11T17:49:14.292Z,14.50
2018-09-11T17:51:42.725Z,10.77
2018-09-11T17:54:11.228Z,12.40
2018-09-11T17:56:39.714Z,12.90
2018-09-11T17:59:08.235Z,14.03
2018-09-11T18:01:36.711Z,14.37
2018-09-11T18:04:05.178Z,12.37
2018-09-11T18:06:33.664Z,10.47
2018-09-11T18:09:02.177Z,9.50
2018-09-11T18:11:30.934Z,12.30
2018-09-11T18:13:59.439Z,11.60
2018-09-11T18:16:28.161Z,9.97
2018-09-11T18:18:56.675Z,11.83
2018-09-11T18:21:25.220Z,12.97
2018-09-11T18:23:53.746Z,11.00
2018-09-11T18:26:22.320Z,10.80
2018-09-11T18:28:51.662Z,12.27
2018-09-11T18:31:20.336Z,11.23
2018-09-11T18:33:49.673Z,10.40
2018-09-11T18:36:18.483Z,12.53
2018-09-11T18:38:47.048Z,12.57
2018-09-11T18:41:16.020Z,15.63
2018-09-11T18:43:45.650Z,20.57
2018-09-11T18:46:15.647Z,17.93
2018-09-11T18:48:45.145Z,14.17
2018-09-11T18:51:14.424Z,11.43
2018-09-11T18:53:44.109Z,14.23
2018-09-11T18:56:13.245Z,17.00
2018-09-11T18:58:42.395Z,14.10
2018-09-11T19:01:12.161Z,17.17
2018-09-11T19:03:41.154Z,11.43
2018-09-11T19:06:09.681Z,17.13
2018-09-11T19:08:38.720Z,13.20
2018-09-11T19:11:09.052Z,11.50
2018-09-11T19:13:38.309Z,10.47
2018-09-11T19:16:07.937Z,17.63
2018-09-11T19:18:38.270Z,13.17
2018-09-11T19:21:07.420Z,17.07
2018-09-11T19:23:36.019Z,16.73
2018-09-11T19:26:04.567Z,13.23
2018-09-11T19:28:33.138Z,12.33
2018-09-11T19:31:02.986Z,12.37
2018-09-11T19:33:33.030Z,13.30
2018-09-11T19:36:01.925Z,14.00
2018-09-11T19:38:30.466Z,11.87
2018-09-11T19:40:58.989Z,13.80
2018-09-11T19:43:28.127Z,13.80
2018-09-11T19:45:56.709Z,10.83
2018-09-11T19:48:25.259Z,11.97
2018-09-11T19:50:53.808Z,31.30
2018-09-11T19:53:23.214Z,11.37
2018-09-11T19:55:51.824Z,20.77
2018-09-11T19:58:20.440Z,23.70
2018-09-11T20:00:49.064Z,16.53
2018-09-11T20:03:17.663Z,21.40
2018-09-11T20:05:47.687Z,16.77
2018-09-11T20:08:16.277Z,17.60
2018-09-11T20:10:44.964Z,34.40
2018-09-11T20:13:14.815Z,26.80
2018-09-11T20:15:43.455Z,23.70
2018-09-11T20:18:12.110Z,14.33
2018-09-11T20:20:40.764Z,23.20
2018-09-11T20:23:09.318Z,30.40
2018-09-11T20:25:37.829Z,17.47
2018-09-11T20:28:07.658Z,23.87
2018-09-11T20:30:36.178Z,33.53
2018-09-11T20:33:04.766Z,18.47
2018-09-11T20:35:33.371Z,21.83
2018-09-11T20:38:02.033Z,24.40
2018-09-11T20:40:31.202Z,19.73
2018-09-11T20:42:59.815Z,23.27
2018-09-11T20:45:28.425Z,20.80
2018-09-11T20:47:57.827Z,17.33
2018-09-11T20:50:26.380Z,21.70
2018-09-11T20:52:54.950Z,17.30
2018-09-11T20:55:23.521Z,17.23
2018-09-11T20:57:52.035Z,19.50
2018-09-11T21:00:20.565Z,16.30
2018-09-11T21:02:49.106Z,18.03
2018-09-11T21:05:17.652Z,15.20
2018-09-11T21:07:46.192Z,17.37
2018-09-11T21:10:14.780Z,20.03
2018-09-11T21:12:43.333Z,16.00
2018-09-11T21:15:11.871Z,21.33
2018-09-11T21:17:40.462Z,16.00
2018-09-11T21:20:09.065Z,13.53
2018-09-11T21:22:37.640Z,11.83
2018-09-11T21:25:06.344Z,20.27
2018-09-11T21:27:34.870Z,15.13
2018-09-11T21:30:03.428Z,19.07
2018-09-11T21:32:31.963Z,13.00
2018-09-11T21:35:00.507Z,13.97
2018-09-11T21:37:29.986Z,14.90
2018-09-11T21:39:59.538Z,15.17
2018-09-11T21:42:28.114Z,13.77
2018-09-11T21:44:56.700Z,15.00
2018-09-11T21:47:25.256Z,15.70
2018-09-11T21:49:54.752Z,17.50
2018-09-11T21:52:23.255Z,9.20
2018-09-11T21:54:51.832Z,11.70
2018-09-11T21:57:20.427Z,11.17
2018-09-11T21:59:48.979Z,13.13
2018-09-11T22:02:17.694Z,16.73
2018-09-11T22:04:48.154Z,16.13
2018-09-11T22:07:16.699Z,13.20
2018-09-11T22:09:45.275Z,12.63
2018-09-11T22:12:13.808Z,11.63
2018-09-11T22:14:42.361Z,12.87
2018-09-11T22:17:10.976Z,14.87
2018-09-11T22:19:39.738Z,9.80
2018-09-11T22:22:08.355Z,14.40
2018-09-11T22:24:37.034Z,11.87
2018-09-11T22:27:07.627Z,13.53
2018-09-11T22:29:36.368Z,13.70
2018-09-11T22:32:04.931Z,10.60
2018-09-11T22:34:33.515Z,13.60
2018-09-11T22:37:02.079Z,11.27
2018-09-11T22:39:30.674Z,10.93
2018-09-11T22:41:59.273Z,13.30
2018-09-11T22:44:27.835Z,11.77
2018-09-11T22:46:56.382Z,12.37
2018-09-11T22:49:24.987Z,11.93
2018-09-11T22:51:53.517Z,8.60
2018-09-11T22:54:22.069Z,13.57
2018-09-11T22:56:50.731Z,10.60
2018-09-11T22:59:19.303Z,11.43
2018-09-11T23:01:47.889Z,10.77
2018-09-11T23:04:17.121Z,12.17
2018-09-11T23:06:45.712Z,10.50
2018-09-11T23:09:14.430Z,9.87
2018-09-11T23:11:42.979Z,9.40
2018-09-11T23:14:11.547Z,10.73
2018-09-11T23:16:40.087Z,9.83
2018-09-11T23:19:08.673Z,10.97
2018-09-11T23:21:38.759Z,11.80
2018-09-11T23:24:07.557Z,9.40
2018-09-11T23:26:36.102Z,12.37
2018-09-11T23:29:05.999Z,9.10
2018-09-11T23:31:34.694Z,9.50
2018-09-11T23:34:03.371Z,12.80
2018-09-11T23:36:31.947Z,12.93
2018-09-11T23:39:01.304Z,9.03
2018-09-11T23:41:30.048Z,8.90
2018-09-11T23:43:59.425Z,10.17
2018-09-11T23:46:27.995Z,8.43
2018-09-11T23:48:56.535Z,7.40
2018-09-11T23:51:25.086Z,8.17
2018-09-11T23:53:53.639Z,9.93
2018-09-11T23:56:22.123Z,9.43
2018-09-11T23:58:50.745Z,9.57
